SWR205 LLBG-LSZH
Flight info
| Callsign | SWR205 |
|---|---|
| Flight time | N/A |
| Altitude | 40000 |
| Route | SUVAS DCT TEZAK L324 SAFTA DCT MAROS DCT LUTIG DCT EXELA UN127 RIKSO DCT FSK DCT DISOR DCT LONTA UL608 DOLEV DCT BOSNA DCT MARIL DCT KUSIB DCT DOL DCT ERKIR DCT KPT L856 NEGRA |
| Aircraft | A339/H-SADE1E2E3GHIJ3J5M1P2RWXY/LB2D1 |
Departure
| Time | 2026-05-01 11:11 |
|---|---|
| Airport | Ben Gurion International Airport (LLBG) |
Arrival
| Time | N/A |
|---|---|
| Airport | Zürich Airport (LSZH) |
| Time | Latitude | Longitude | Altitude | Speed | Heading |
|---|---|---|---|---|---|
| 2026-05-01 10:33 | 32.00647 | 34.87149 | 116 ft | 0 kts | 190° |
| 2026-05-01 10:54 | 32.00649 | 34.87149 | 115 ft | 3 kts | 190° |
| 2026-05-01 10:55 | 32.00670 | 34.87155 | 115 ft | 3 kts | 193° |
| 2026-05-01 10:55 | 32.00685 | 34.87159 | 117 ft | 0 kts | 193° |
| 2026-05-01 10:56 | 32.00687 | 34.87159 | 117 ft | 3 kts | 192° |
| 2026-05-01 10:56 | 32.00707 | 34.87164 | 116 ft | 2 kts | 159° |
| 2026-05-01 10:56 | 32.00716 | 34.87157 | 115 ft | 2 kts | 105° |
| 2026-05-01 10:57 | 32.00717 | 34.87138 | 116 ft | 4 kts | 85° |
| 2026-05-01 10:57 | 32.00714 | 34.87109 | 115 ft | 4 kts | 77° |
| 2026-05-01 10:57 | 32.00708 | 34.87085 | 115 ft | 2 kts | 72° |
| 2026-05-01 10:57 | 32.00704 | 34.87072 | 114 ft | 2 kts | 71° |
| 2026-05-01 10:58 | 32.00703 | 34.87067 | 115 ft | 0 kts | 71° |
| 2026-05-01 10:59 | 32.00703 | 34.87069 | 115 ft | 1 kts | 71° |
| 2026-05-01 10:59 | 32.00706 | 34.87078 | 115 ft | 1 kts | 71° |
| 2026-05-01 11:01 | 32.00706 | 34.87079 | 120 ft | 1 kts | 71° |
| 2026-05-01 11:02 | 32.00709 | 34.87096 | 116 ft | 4 kts | 77° |
| 2026-05-01 11:02 | 32.00719 | 34.87144 | 118 ft | 8 kts | 76° |
| 2026-05-01 11:02 | 32.00736 | 34.87227 | 118 ft | 13 kts | 76° |
| 2026-05-01 11:02 | 32.00772 | 34.87310 | 116 ft | 11 kts | 40° |
| 2026-05-01 11:03 | 32.00821 | 34.87375 | 117 ft | 10 kts | 75° |
| 2026-05-01 11:03 | 32.00802 | 34.87439 | 117 ft | 8 kts | 118° |
| 2026-05-01 11:03 | 32.00777 | 34.87491 | 118 ft | 9 kts | 121° |
| 2026-05-01 11:03 | 32.00773 | 34.87499 | 120 ft | 9 kts | 121° |
| 2026-05-01 11:05 | 32.00737 | 34.87568 | 117 ft | 11 kts | 122° |
| 2026-05-01 11:05 | 32.00696 | 34.87646 | 119 ft | 12 kts | 121° |
| 2026-05-01 11:06 | 32.00650 | 34.87735 | 119 ft | 13 kts | 121° |
| 2026-05-01 11:06 | 32.00603 | 34.87829 | 119 ft | 12 kts | 121° |
| 2026-05-01 11:06 | 32.00598 | 34.87913 | 118 ft | 11 kts | 58° |
| 2026-05-01 11:07 | 32.00619 | 34.87936 | 120 ft | 1 kts | 35° |
| 2026-05-01 11:07 | 32.00639 | 34.87952 | 118 ft | 6 kts | 33° |
| 2026-05-01 11:07 | 32.00693 | 34.87991 | 120 ft | 12 kts | 32° |
| 2026-05-01 11:07 | 32.00778 | 34.88054 | 120 ft | 17 kts | 32° |
| 2026-05-01 11:08 | 32.00895 | 34.88138 | 120 ft | 22 kts | 31° |
| 2026-05-01 11:08 | 32.01027 | 34.88232 | 122 ft | 23 kts | 31° |
| 2026-05-01 11:08 | 32.01320 | 34.88456 | 123 ft | 26 kts | 39° |
| 2026-05-01 11:09 | 32.01427 | 34.88623 | 127 ft | 25 kts | 59° |
| 2026-05-01 11:09 | 32.01490 | 34.88813 | 126 ft | 25 kts | 74° |
| 2026-05-01 11:09 | 32.01521 | 34.89001 | 125 ft | 22 kts | 80° |
| 2026-05-01 11:10 | 32.01645 | 34.89144 | 131 ft | 12 kts | 352° |
| 2026-05-01 11:10 | 32.01726 | 34.89111 | 129 ft | 13 kts | 313° |
| 2026-05-01 11:10 | 32.01734 | 34.89022 | 127 ft | 10 kts | 258° |
| 2026-05-01 11:10 | 32.01705 | 34.88837 | 130 ft | 47 kts | 260° |
| 2026-05-01 11:11 | 32.01615 | 34.88240 | 122 ft | 100 kts | 261° |
| 2026-05-01 11:11 | 32.01462 | 34.87250 | 126 ft | 145 kts | 264° |
| 2026-05-01 11:11 | 32.01276 | 34.86128 | 799 ft | 138 kts | 262° |
| 2026-05-01 11:11 | 32.01094 | 34.84903 | 1106 ft | 162 kts | 268° |
| 2026-05-01 11:12 | 32.00990 | 34.83516 | 1488 ft | 181 kts | 268° |
| 2026-05-01 11:12 | 32.00744 | 34.82003 | 2042 ft | 193 kts | 257° |
| 2026-05-01 11:12 | 32.00391 | 34.80415 | 2642 ft | 205 kts | 256° |
| 2026-05-01 11:12 | 32.00297 | 34.80002 | 2756 ft | 210 kts | 255° |
| 2026-05-01 11:13 | 32.00146 | 34.79338 | 2892 ft | 220 kts | 256° |
| 2026-05-01 11:13 | 31.99727 | 34.77501 | 3180 ft | 244 kts | 255° |
| 2026-05-01 11:13 | 31.99474 | 34.75435 | 3424 ft | 267 kts | 272° |
| 2026-05-01 11:14 | 31.99728 | 34.73191 | 3878 ft | 283 kts | 280° |
| 2026-05-01 11:14 | 32.00161 | 34.70904 | 4536 ft | 289 kts | 287° |
| 2026-05-01 11:14 | 32.00877 | 34.68672 | 5198 ft | 293 kts | 292° |
| 2026-05-01 11:14 | 32.01671 | 34.66449 | 5930 ft | 295 kts | 292° |
| 2026-05-01 11:15 | 32.02475 | 34.64211 | 6644 ft | 298 kts | 292° |
| 2026-05-01 11:15 | 32.03286 | 34.61956 | 7365 ft | 300 kts | 292° |
| 2026-05-01 11:15 | 32.04100 | 34.59672 | 8091 ft | 303 kts | 289° |
| 2026-05-01 11:15 | 32.04547 | 34.57246 | 8837 ft | 305 kts | 274° |
| 2026-05-01 11:16 | 32.04587 | 34.54771 | 9576 ft | 308 kts | 269° |
| 2026-05-01 11:16 | 32.04554 | 34.52192 | 10003 ft | 322 kts | 269° |
| 2026-05-01 11:16 | 32.04513 | 34.49475 | 10227 ft | 340 kts | 269° |
| 2026-05-01 11:16 | 32.04470 | 34.46622 | 10457 ft | 356 kts | 269° |
| 2026-05-01 11:17 | 32.04425 | 34.43674 | 10972 ft | 362 kts | 269° |
| 2026-05-01 11:17 | 32.04379 | 34.40702 | 11641 ft | 363 kts | 269° |
| 2026-05-01 11:17 | 32.04371 | 34.37714 | 12327 ft | 364 kts | 271° |
| 2026-05-01 11:17 | 32.04411 | 34.34730 | 13041 ft | 365 kts | 271° |
| 2026-05-01 11:18 | 32.04463 | 34.31724 | 13695 ft | 367 kts | 272° |
| 2026-05-01 11:18 | 32.04547 | 34.28751 | 14263 ft | 369 kts | 272° |
| 2026-05-01 11:18 | 32.04663 | 34.25720 | 14834 ft | 371 kts | 276° |
| 2026-05-01 11:18 | 32.05280 | 34.22750 | 15399 ft | 374 kts | 290° |
| 2026-05-01 11:19 | 32.06443 | 34.19995 | 15975 ft | 377 kts | 297° |
| 2026-05-01 11:19 | 32.07750 | 34.17303 | 16557 ft | 379 kts | 298° |
| 2026-05-01 11:19 | 32.09075 | 34.14597 | 17082 ft | 382 kts | 298° |
| 2026-05-01 11:19 | 32.10404 | 34.11881 | 17619 ft | 384 kts | 297° |
| 2026-05-01 11:20 | 32.11292 | 34.10065 | 17956 ft | 386 kts | 297° |
| 2026-05-01 11:20 | 32.12644 | 34.07318 | 18434 ft | 389 kts | 298° |
| 2026-05-01 11:20 | 32.13970 | 34.04863 | 18831 ft | 392 kts | 301° |
| 2026-05-01 11:21 | 32.14544 | 34.03850 | 19013 ft | 393 kts | 301° |
| 2026-05-01 11:21 | 32.16072 | 34.01174 | 19469 ft | 394 kts | 301° |
| 2026-05-01 11:22 | 32.17612 | 33.98478 | 19916 ft | 397 kts | 301° |
| 2026-05-01 11:22 | 32.19165 | 33.95769 | 20355 ft | 399 kts | 302° |
| 2026-05-01 11:22 | 32.20753 | 33.93075 | 20811 ft | 401 kts | 302° |
| 2026-05-01 11:22 | 32.22352 | 33.90378 | 21230 ft | 403 kts | 302° |
| 2026-05-01 11:23 | 32.23943 | 33.87694 | 21647 ft | 405 kts | 302° |
| 2026-05-01 11:23 | 32.25583 | 33.84929 | 22081 ft | 407 kts | 302° |
| 2026-05-01 11:23 | 32.27210 | 33.82186 | 22511 ft | 408 kts | 302° |
| 2026-05-01 11:23 | 32.28821 | 33.79467 | 22950 ft | 410 kts | 302° |
| 2026-05-01 11:24 | 32.30460 | 33.76703 | 23376 ft | 412 kts | 302° |
| 2026-05-01 11:24 | 32.32128 | 33.73888 | 23741 ft | 414 kts | 302° |
| 2026-05-01 11:24 | 32.35424 | 33.68326 | 24429 ft | 418 kts | 303° |
| 2026-05-01 11:25 | 32.37095 | 33.65506 | 24771 ft | 420 kts | 303° |
| 2026-05-01 11:25 | 32.40458 | 33.59827 | 25450 ft | 423 kts | 303° |
| 2026-05-01 11:25 | 32.42148 | 33.56974 | 25785 ft | 425 kts | 303° |
| 2026-05-01 11:26 | 32.43847 | 33.54106 | 26117 ft | 426 kts | 303° |
| 2026-05-01 11:26 | 32.47235 | 33.48384 | 26770 ft | 430 kts | 303° |
| 2026-05-01 11:26 | 32.48960 | 33.45470 | 27082 ft | 432 kts | 303° |
| 2026-05-01 11:27 | 32.50684 | 33.42557 | 27409 ft | 433 kts | 303° |
| 2026-05-01 11:27 | 32.52450 | 33.39638 | 27736 ft | 435 kts | 304° |
| 2026-05-01 11:27 | 32.54233 | 33.36732 | 28060 ft | 437 kts | 304° |
| 2026-05-01 11:27 | 32.56022 | 33.33817 | 28361 ft | 439 kts | 304° |
| 2026-05-01 11:28 | 32.57822 | 33.30884 | 28677 ft | 440 kts | 304° |
| 2026-05-01 11:28 | 32.59630 | 33.27940 | 28946 ft | 442 kts | 304° |
| 2026-05-01 11:28 | 32.61447 | 33.24978 | 29254 ft | 443 kts | 304° |
| 2026-05-01 11:29 | 32.64950 | 33.19139 | 30605 ft | 428 kts | 303° |
| 2026-05-01 11:29 | 32.66663 | 33.16244 | 30961 ft | 427 kts | 303° |
| 2026-05-01 11:29 | 32.70061 | 33.10497 | 31694 ft | 424 kts | 303° |
| 2026-05-01 11:30 | 32.71736 | 33.07662 | 32008 ft | 425 kts | 303° |
| 2026-05-01 11:30 | 32.73430 | 33.04797 | 32335 ft | 424 kts | 303° |
| 2026-05-01 11:30 | 32.75126 | 33.01927 | 32674 ft | 423 kts | 303° |
| 2026-05-01 11:30 | 32.76820 | 32.99059 | 32963 ft | 423 kts | 303° |
| 2026-05-01 11:31 | 32.78509 | 32.96201 | 33267 ft | 423 kts | 302° |
| 2026-05-01 11:31 | 32.80199 | 32.93339 | 33563 ft | 422 kts | 302° |
| 2026-05-01 11:31 | 32.81883 | 32.90488 | 33867 ft | 421 kts | 302° |
| 2026-05-01 11:31 | 32.83567 | 32.87637 | 34138 ft | 420 kts | 302° |
| 2026-05-01 11:32 | 32.85246 | 32.84792 | 34369 ft | 420 kts | 302° |
| 2026-05-01 11:32 | 32.86923 | 32.81953 | 34609 ft | 420 kts | 302° |
| 2026-05-01 11:32 | 32.88601 | 32.79109 | 34861 ft | 419 kts | 302° |
| 2026-05-01 11:32 | 32.90269 | 32.76285 | 35114 ft | 418 kts | 302° |
| 2026-05-01 11:33 | 32.91939 | 32.73454 | 35394 ft | 415 kts | 302° |
| 2026-05-01 11:33 | 32.93591 | 32.70657 | 35885 ft | 408 kts | 302° |
| 2026-05-01 11:33 | 32.95213 | 32.67909 | 36261 ft | 404 kts | 302° |
| 2026-05-01 11:33 | 32.96825 | 32.65176 | 36528 ft | 403 kts | 302° |
| 2026-05-01 11:34 | 32.98435 | 32.62448 | 36722 ft | 402 kts | 302° |
| 2026-05-01 11:34 | 33.00037 | 32.59732 | 36971 ft | 401 kts | 302° |
| 2026-05-01 11:34 | 33.01640 | 32.57012 | 37188 ft | 400 kts | 302° |
| 2026-05-01 11:34 | 33.03240 | 32.54300 | 37387 ft | 400 kts | 302° |
| 2026-05-01 11:35 | 33.04835 | 32.51593 | 37577 ft | 399 kts | 302° |
| 2026-05-01 11:35 | 33.06432 | 32.48885 | 37767 ft | 399 kts | 302° |
| 2026-05-01 11:35 | 33.08021 | 32.46188 | 37960 ft | 398 kts | 302° |
| 2026-05-01 11:35 | 33.09612 | 32.43488 | 38140 ft | 398 kts | 302° |
| 2026-05-01 11:36 | 33.11201 | 32.40792 | 38312 ft | 397 kts | 302° |
| 2026-05-01 11:36 | 33.12785 | 32.38090 | 38491 ft | 396 kts | 301° |
| 2026-05-01 11:36 | 33.14332 | 32.35377 | 38637 ft | 396 kts | 301° |
| 2026-05-01 11:36 | 33.15880 | 32.32650 | 38798 ft | 395 kts | 301° |
| 2026-05-01 11:37 | 33.17421 | 32.29934 | 38949 ft | 394 kts | 301° |
| 2026-05-01 11:37 | 33.18937 | 32.27261 | 39068 ft | 394 kts | 301° |
| 2026-05-01 11:37 | 33.20474 | 32.24551 | 39176 ft | 394 kts | 301° |
| 2026-05-01 11:38 | 33.23553 | 32.19120 | 39347 ft | 395 kts | 301° |
| 2026-05-01 11:38 | 33.26635 | 32.13683 | 39530 ft | 395 kts | 301° |
| 2026-05-01 11:39 | 33.29715 | 32.08249 | 39709 ft | 395 kts | 301° |
| 2026-05-01 11:39 | 33.31258 | 32.05526 | 39831 ft | 395 kts | 300° |
| 2026-05-01 11:39 | 33.32796 | 32.02811 | 39939 ft | 394 kts | 300° |
| 2026-05-01 11:40 | 33.35886 | 31.97355 | 39971 ft | 398 kts | 300° |
| 2026-05-01 11:40 | 33.39001 | 31.91852 | 39990 ft | 402 kts | 301° |
| 2026-05-01 11:41 | 33.42156 | 31.86277 | 39970 ft | 407 kts | 301° |
| 2026-05-01 11:41 | 33.45347 | 31.80637 | 39989 ft | 411 kts | 301° |
| 2026-05-01 11:42 | 33.49367 | 31.75730 | 39990 ft | 427 kts | 326° |
| 2026-05-01 11:42 | 33.54941 | 31.73034 | 39990 ft | 435 kts | 333° |
| 2026-05-01 11:43 | 33.60649 | 31.70557 | 39986 ft | 437 kts | 333° |
| 2026-05-01 11:43 | 33.66369 | 31.68076 | 39981 ft | 437 kts | 333° |
| 2026-05-01 11:44 | 33.74908 | 31.64371 | 39979 ft | 437 kts | 333° |
| 2026-05-01 11:44 | 33.80625 | 31.61889 | 39981 ft | 437 kts | 333° |
| 2026-05-01 11:45 | 33.86340 | 31.59407 | 39982 ft | 437 kts | 333° |
| 2026-05-01 11:45 | 33.91750 | 31.56336 | 39980 ft | 422 kts | 318° |
| 2026-05-01 11:46 | 33.96308 | 31.51939 | 39977 ft | 419 kts | 314° |
| 2026-05-01 11:46 | 34.00794 | 31.47432 | 39974 ft | 419 kts | 314° |
| 2026-05-01 11:47 | 34.05274 | 31.42928 | 39972 ft | 419 kts | 314° |
| 2026-05-01 11:47 | 34.09757 | 31.38419 | 39974 ft | 419 kts | 314° |
| 2026-05-01 11:48 | 34.14244 | 31.33906 | 39974 ft | 419 kts | 314° |
| 2026-05-01 11:48 | 34.18719 | 31.29402 | 39972 ft | 419 kts | 314° |
| 2026-05-01 11:49 | 34.23221 | 31.24988 | 39974 ft | 420 kts | 316° |
| 2026-05-01 11:49 | 34.27842 | 31.20652 | 39977 ft | 420 kts | 316° |
| 2026-05-01 11:50 | 34.32461 | 31.16319 | 39970 ft | 420 kts | 316° |
| 2026-05-01 11:50 | 34.37077 | 31.11987 | 39972 ft | 420 kts | 316° |
| 2026-05-01 11:51 | 34.41688 | 31.07657 | 39991 ft | 420 kts | 316° |
| 2026-05-01 11:51 | 34.46305 | 31.03321 | 39962 ft | 420 kts | 316° |
| 2026-05-01 11:52 | 34.50928 | 30.98977 | 39975 ft | 420 kts | 316° |
| 2026-05-01 11:52 | 34.55548 | 30.94634 | 39960 ft | 420 kts | 316° |
| 2026-05-01 11:53 | 34.60170 | 30.90286 | 39961 ft | 420 kts | 316° |
| 2026-05-01 11:53 | 34.64779 | 30.85951 | 39961 ft | 420 kts | 316° |
| 2026-05-01 11:54 | 34.69366 | 30.81633 | 39961 ft | 420 kts | 316° |
| 2026-05-01 11:54 | 34.74013 | 30.77257 | 39973 ft | 420 kts | 316° |
| 2026-05-01 11:55 | 34.78596 | 30.72940 | 39956 ft | 420 kts | 316° |
| 2026-05-01 11:55 | 34.83215 | 30.68586 | 39956 ft | 420 kts | 316° |
| 2026-05-01 11:56 | 34.87835 | 30.64230 | 39958 ft | 420 kts | 316° |
| 2026-05-01 11:56 | 34.92451 | 30.59875 | 39955 ft | 420 kts | 316° |
| 2026-05-01 11:57 | 34.96293 | 30.56250 | 39955 ft | 420 kts | 316° |
| 2026-05-01 11:57 | 35.01691 | 30.51153 | 39955 ft | 420 kts | 316° |
| 2026-05-01 11:58 | 35.06286 | 30.46760 | 39949 ft | 418 kts | 314° |
| 2026-05-01 11:59 | 35.12631 | 30.39909 | 39951 ft | 417 kts | 313° |
| 2026-05-01 11:59 | 35.16953 | 30.35199 | 39947 ft | 417 kts | 313° |
| 2026-05-01 12:00 | 35.23492 | 30.28153 | 39952 ft | 418 kts | 315° |
| 2026-05-01 12:01 | 35.30404 | 30.21569 | 39948 ft | 419 kts | 316° |
| 2026-05-01 12:01 | 35.35022 | 30.17194 | 39950 ft | 420 kts | 316° |
| 2026-05-01 12:02 | 35.39641 | 30.12818 | 39938 ft | 420 kts | 316° |
| 2026-05-01 12:02 | 35.44270 | 30.08429 | 39944 ft | 420 kts | 316° |
| 2026-05-01 12:03 | 35.48891 | 30.04047 | 39941 ft | 420 kts | 316° |
| 2026-05-01 12:03 | 35.53343 | 29.99491 | 39938 ft | 417 kts | 313° |
| 2026-05-01 12:04 | 35.57747 | 29.94839 | 39935 ft | 417 kts | 313° |
| 2026-05-01 12:04 | 35.62152 | 29.90184 | 39934 ft | 417 kts | 313° |
| 2026-05-01 12:05 | 35.66556 | 29.85528 | 39939 ft | 418 kts | 313° |
| 2026-05-01 12:05 | 35.72418 | 29.79327 | 39938 ft | 417 kts | 313° |
| 2026-05-01 12:06 | 35.76818 | 29.74670 | 39936 ft | 417 kts | 313° |
| 2026-05-01 12:06 | 35.81212 | 29.70017 | 39937 ft | 417 kts | 313° |
| 2026-05-01 12:07 | 35.85618 | 29.65349 | 39937 ft | 417 kts | 313° |
| 2026-05-01 12:07 | 35.90016 | 29.60688 | 39928 ft | 417 kts | 313° |
| 2026-05-01 12:08 | 35.94455 | 29.56056 | 39940 ft | 418 kts | 314° |
| 2026-05-01 12:08 | 35.98898 | 29.51506 | 39937 ft | 418 kts | 314° |
| 2026-05-01 12:09 | 36.03376 | 29.46918 | 39936 ft | 418 kts | 314° |
| 2026-05-01 12:09 | 36.07845 | 29.42338 | 39936 ft | 418 kts | 314° |
| 2026-05-01 12:10 | 36.14562 | 29.35450 | 39939 ft | 417 kts | 314° |
| 2026-05-01 12:11 | 36.21278 | 29.28558 | 39941 ft | 417 kts | 314° |
| 2026-05-01 12:11 | 36.25725 | 29.23992 | 39958 ft | 418 kts | 314° |
| 2026-05-01 12:12 | 36.30202 | 29.19393 | 39941 ft | 418 kts | 314° |
| 2026-05-01 12:12 | 36.34630 | 29.14842 | 39942 ft | 417 kts | 314° |
| 2026-05-01 12:13 | 36.39134 | 29.10211 | 39943 ft | 417 kts | 314° |
| 2026-05-01 12:13 | 36.43603 | 29.05613 | 39941 ft | 417 kts | 314° |
| 2026-05-01 12:14 | 36.48048 | 29.00965 | 39944 ft | 417 kts | 313° |
| 2026-05-01 12:14 | 36.52440 | 28.96280 | 39944 ft | 417 kts | 313° |
| 2026-05-01 12:15 | 36.56851 | 28.91639 | 39960 ft | 420 kts | 315° |
| 2026-05-01 12:15 | 36.61537 | 28.87251 | 39965 ft | 422 kts | 316° |
| 2026-05-01 12:16 | 36.65965 | 28.83149 | 39959 ft | 422 kts | 316° |
| 2026-05-01 12:16 | 36.70615 | 28.78842 | 39965 ft | 422 kts | 316° |
| 2026-05-01 12:17 | 36.75058 | 28.74139 | 39966 ft | 415 kts | 309° |
| 2026-05-01 12:17 | 36.79103 | 28.69006 | 39966 ft | 415 kts | 308° |
| 2026-05-01 12:18 | 36.83138 | 28.63859 | 39979 ft | 415 kts | 308° |
| 2026-05-01 12:18 | 36.87325 | 28.58872 | 39945 ft | 416 kts | 312° |
| 2026-05-01 12:19 | 36.91618 | 28.54096 | 39963 ft | 417 kts | 312° |
| 2026-05-01 12:19 | 36.95981 | 28.49248 | 39947 ft | 419 kts | 312° |
| 2026-05-01 12:20 | 37.00325 | 28.44418 | 39962 ft | 418 kts | 312° |
| 2026-05-01 12:20 | 37.04675 | 28.39582 | 39962 ft | 419 kts | 312° |
| 2026-05-01 12:21 | 37.09035 | 28.34736 | 39972 ft | 419 kts | 312° |
| 2026-05-01 12:21 | 37.13391 | 28.29890 | 39968 ft | 419 kts | 312° |
| 2026-05-01 12:22 | 37.17740 | 28.25048 | 39964 ft | 418 kts | 312° |
| 2026-05-01 12:22 | 37.22068 | 28.20226 | 39970 ft | 418 kts | 312° |
| 2026-05-01 12:23 | 37.26420 | 28.15377 | 39970 ft | 419 kts | 312° |
| 2026-05-01 12:23 | 37.30786 | 28.10512 | 39970 ft | 418 kts | 312° |
| 2026-05-01 12:24 | 37.35136 | 28.05663 | 39990 ft | 418 kts | 312° |
| 2026-05-01 12:24 | 37.39486 | 28.00808 | 39974 ft | 418 kts | 312° |
| 2026-05-01 12:25 | 37.46026 | 27.93503 | 39982 ft | 420 kts | 312° |
| 2026-05-01 12:26 | 37.50462 | 27.88774 | 39978 ft | 423 kts | 315° |
| 2026-05-01 12:26 | 37.57475 | 27.81959 | 39985 ft | 424 kts | 315° |
| 2026-05-01 12:27 | 37.64482 | 27.75156 | 39989 ft | 424 kts | 315° |
| 2026-05-01 12:28 | 37.71489 | 27.68348 | 39991 ft | 424 kts | 315° |
| 2026-05-01 12:29 | 37.78531 | 27.61499 | 39992 ft | 427 kts | 315° |
| 2026-05-01 12:29 | 37.84991 | 27.53993 | 40032 ft | 421 kts | 309° |
| 2026-05-01 12:30 | 37.91309 | 27.46201 | 40045 ft | 426 kts | 311° |
| 2026-05-01 12:31 | 37.95688 | 27.41097 | 40044 ft | 428 kts | 311° |
| 2026-05-01 12:31 | 38.00072 | 27.35991 | 40002 ft | 428 kts | 311° |
| 2026-05-01 12:32 | 38.04456 | 27.30881 | 40015 ft | 429 kts | 311° |
| 2026-05-01 12:32 | 38.11104 | 27.23215 | 40016 ft | 434 kts | 313° |
| 2026-05-01 12:33 | 38.15695 | 27.18213 | 40022 ft | 434 kts | 313° |
| 2026-05-01 12:33 | 38.20284 | 27.13220 | 40028 ft | 434 kts | 313° |
| 2026-05-01 12:34 | 38.24868 | 27.08229 | 40014 ft | 434 kts | 313° |
| 2026-05-01 12:34 | 38.29461 | 27.03226 | 40013 ft | 434 kts | 313° |
| 2026-05-01 12:35 | 38.34050 | 26.98224 | 40027 ft | 435 kts | 313° |
| 2026-05-01 12:35 | 38.38659 | 26.93198 | 40041 ft | 437 kts | 313° |
| 2026-05-01 12:36 | 38.43250 | 26.88188 | 40041 ft | 436 kts | 313° |
| 2026-05-01 12:36 | 38.47867 | 26.83147 | 40056 ft | 437 kts | 313° |
| 2026-05-01 12:37 | 38.52493 | 26.78093 | 40059 ft | 437 kts | 314° |
| 2026-05-01 12:37 | 38.57112 | 26.73044 | 40061 ft | 437 kts | 314° |
| 2026-05-01 12:38 | 38.61736 | 26.67985 | 40078 ft | 438 kts | 314° |
| 2026-05-01 12:38 | 38.66380 | 26.62902 | 40069 ft | 440 kts | 314° |
| 2026-05-01 12:39 | 38.71039 | 26.57800 | 40074 ft | 440 kts | 314° |
| 2026-05-01 12:39 | 38.75592 | 26.52601 | 40093 ft | 438 kts | 312° |
| 2026-05-01 12:40 | 38.80058 | 26.47349 | 40089 ft | 438 kts | 312° |
| 2026-05-01 12:40 | 38.84328 | 26.41867 | 40107 ft | 435 kts | 307° |
| 2026-05-01 12:41 | 38.88347 | 26.36049 | 40106 ft | 434 kts | 306° |
| 2026-05-01 12:41 | 38.92352 | 26.30228 | 40102 ft | 436 kts | 307° |
| 2026-05-01 12:42 | 38.96371 | 26.24383 | 40100 ft | 437 kts | 307° |
| 2026-05-01 12:42 | 39.00395 | 26.18527 | 40096 ft | 437 kts | 307° |
| 2026-05-01 12:43 | 39.04401 | 26.12695 | 40097 ft | 437 kts | 307° |
| 2026-05-01 12:43 | 39.08429 | 26.06826 | 40102 ft | 437 kts | 307° |
| 2026-05-01 12:44 | 39.12457 | 26.00954 | 40112 ft | 437 kts | 307° |
| 2026-05-01 12:45 | 39.20514 | 25.89200 | 40142 ft | 437 kts | 307° |
| 2026-05-01 12:45 | 39.24552 | 25.83303 | 40124 ft | 440 kts | 307° |
| 2026-05-01 12:46 | 39.28604 | 25.77382 | 40126 ft | 441 kts | 307° |
| 2026-05-01 12:46 | 39.32671 | 25.71436 | 40132 ft | 441 kts | 307° |
| 2026-05-01 12:47 | 39.36705 | 25.65534 | 40138 ft | 441 kts | 307° |
| 2026-05-01 12:47 | 39.40763 | 25.59594 | 40149 ft | 441 kts | 307° |
| 2026-05-01 12:48 | 39.44829 | 25.53639 | 40145 ft | 441 kts | 307° |
| 2026-05-01 12:48 | 39.48895 | 25.47680 | 40160 ft | 441 kts | 307° |
| 2026-05-01 12:49 | 39.52965 | 25.41711 | 40169 ft | 442 kts | 307° |
| 2026-05-01 12:49 | 39.57050 | 25.35715 | 40162 ft | 445 kts | 307° |
| 2026-05-01 12:50 | 39.61125 | 25.29732 | 40175 ft | 445 kts | 307° |
| 2026-05-01 12:50 | 39.65222 | 25.23712 | 40183 ft | 445 kts | 307° |
| 2026-05-01 12:51 | 39.69318 | 25.17691 | 40188 ft | 445 kts | 307° |
| 2026-05-01 12:52 | 39.74774 | 25.09664 | 40196 ft | 445 kts | 307° |
| 2026-05-01 12:52 | 39.80920 | 25.00613 | 40204 ft | 445 kts | 308° |
| 2026-05-01 12:53 | 39.87088 | 24.91521 | 40195 ft | 448 kts | 308° |
| 2026-05-01 12:54 | 39.91220 | 24.85426 | 40187 ft | 449 kts | 308° |
| 2026-05-01 12:54 | 39.97423 | 24.76268 | 40183 ft | 448 kts | 308° |
| 2026-05-01 12:55 | 40.03590 | 24.67155 | 40183 ft | 449 kts | 308° |
| 2026-05-01 12:56 | 40.07721 | 24.61046 | 40195 ft | 449 kts | 308° |
| 2026-05-01 12:56 | 40.11851 | 24.54933 | 40193 ft | 448 kts | 308° |
| 2026-05-01 12:57 | 40.15982 | 24.48817 | 40196 ft | 448 kts | 308° |
| 2026-05-01 12:57 | 40.22175 | 24.39638 | 40193 ft | 449 kts | 308° |
| 2026-05-01 12:58 | 40.26286 | 24.33540 | 40198 ft | 449 kts | 308° |
| 2026-05-01 12:59 | 40.32321 | 24.24158 | 40197 ft | 447 kts | 303° |
| 2026-05-01 12:59 | 40.37741 | 24.14211 | 40197 ft | 447 kts | 302° |
| 2026-05-01 13:00 | 40.43143 | 24.04243 | 40203 ft | 447 kts | 303° |
| 2026-05-01 13:01 | 40.48920 | 23.94567 | 40211 ft | 450 kts | 308° |
| 2026-05-01 13:02 | 40.55114 | 23.85330 | 40197 ft | 451 kts | 308° |
| 2026-05-01 13:07 | 40.99941 | 23.16167 | 40195 ft | 450 kts | 304° |
| 2026-05-01 13:08 | 41.03659 | 23.09486 | 40196 ft | 450 kts | 304° |
| 2026-05-01 13:08 | 41.07375 | 23.02803 | 40198 ft | 451 kts | 304° |
| 2026-05-01 13:09 | 41.11100 | 22.96097 | 40193 ft | 452 kts | 304° |
| 2026-05-01 13:09 | 41.14933 | 22.89487 | 40194 ft | 453 kts | 308° |
| 2026-05-01 13:10 | 41.19153 | 22.83262 | 40196 ft | 453 kts | 310° |
| 2026-05-01 13:10 | 41.23402 | 22.77074 | 40189 ft | 454 kts | 310° |
| 2026-05-01 13:11 | 41.27635 | 22.70906 | 40197 ft | 454 kts | 310° |
| 2026-05-01 13:11 | 41.31896 | 22.64693 | 40193 ft | 454 kts | 310° |
| 2026-05-01 13:12 | 41.36152 | 22.58483 | 40211 ft | 454 kts | 310° |
| 2026-05-01 13:12 | 41.40411 | 22.52263 | 40193 ft | 455 kts | 310° |
| 2026-05-01 13:13 | 41.44653 | 22.46062 | 40192 ft | 455 kts | 310° |
| 2026-05-01 13:13 | 41.48921 | 22.39820 | 40194 ft | 455 kts | 310° |
| 2026-05-01 13:14 | 41.53188 | 22.33575 | 40195 ft | 455 kts | 310° |
| 2026-05-01 13:14 | 41.57458 | 22.27321 | 40203 ft | 455 kts | 310° |
| 2026-05-01 13:15 | 41.61726 | 22.21064 | 40202 ft | 455 kts | 310° |
| 2026-05-01 13:15 | 41.65991 | 22.14806 | 40211 ft | 456 kts | 310° |
| 2026-05-01 13:16 | 41.70271 | 22.08522 | 40207 ft | 457 kts | 310° |
| 2026-05-01 13:16 | 41.74557 | 22.02226 | 40213 ft | 457 kts | 310° |
| 2026-05-01 13:17 | 41.83130 | 21.89616 | 40228 ft | 457 kts | 310° |
| 2026-05-01 13:18 | 41.89530 | 21.80190 | 40235 ft | 457 kts | 310° |
| 2026-05-01 13:18 | 41.93811 | 21.73858 | 40243 ft | 458 kts | 310° |
| 2026-05-01 13:19 | 41.98032 | 21.67422 | 40239 ft | 460 kts | 310° |
| 2026-05-01 13:20 | 42.04305 | 21.57827 | 40238 ft | 460 kts | 310° |
| 2026-05-01 13:20 | 42.08529 | 21.51359 | 40231 ft | 460 kts | 310° |
| 2026-05-01 13:21 | 42.14864 | 21.41650 | 40236 ft | 460 kts | 310° |
| 2026-05-01 13:21 | 42.19066 | 21.35205 | 40240 ft | 460 kts | 310° |
| 2026-05-01 13:22 | 42.23295 | 21.28713 | 40241 ft | 461 kts | 310° |
| 2026-05-01 13:22 | 42.27534 | 21.22199 | 40246 ft | 462 kts | 310° |
| 2026-05-01 13:23 | 42.31781 | 21.15669 | 40253 ft | 462 kts | 310° |
| 2026-05-01 13:23 | 42.36005 | 21.09168 | 40256 ft | 462 kts | 310° |
| 2026-05-01 13:24 | 42.40250 | 21.02630 | 40257 ft | 463 kts | 310° |
| 2026-05-01 13:25 | 42.46634 | 20.92789 | 40263 ft | 463 kts | 310° |
| 2026-05-01 13:25 | 42.50889 | 20.86222 | 40268 ft | 464 kts | 310° |
| 2026-05-01 13:26 | 42.55133 | 20.79666 | 40250 ft | 465 kts | 311° |
| 2026-05-01 13:26 | 42.59405 | 20.73064 | 40249 ft | 466 kts | 311° |
| 2026-05-01 13:27 | 42.63663 | 20.66429 | 40247 ft | 466 kts | 309° |
| 2026-05-01 13:27 | 42.69829 | 20.56211 | 40235 ft | 465 kts | 309° |
| 2026-05-01 13:28 | 42.75976 | 20.45981 | 40239 ft | 466 kts | 310° |
| 2026-05-01 13:29 | 42.84170 | 20.32325 | 40241 ft | 467 kts | 309° |
| 2026-05-01 13:31 | 42.96463 | 20.11794 | 40238 ft | 468 kts | 310° |
| 2026-05-01 13:32 | 43.06740 | 19.94593 | 40245 ft | 465 kts | 310° |
| 2026-05-01 13:33 | 43.16949 | 19.77468 | 40238 ft | 464 kts | 310° |
| 2026-05-01 13:34 | 43.25125 | 19.63725 | 40242 ft | 466 kts | 310° |
| 2026-05-01 13:35 | 43.31280 | 19.53358 | 40247 ft | 468 kts | 310° |
| 2026-05-01 13:36 | 43.37455 | 19.42953 | 40241 ft | 467 kts | 311° |
| 2026-05-01 13:36 | 43.43726 | 19.32630 | 40245 ft | 469 kts | 311° |
| 2026-05-01 13:37 | 43.47195 | 19.26974 | 40247 ft | 469 kts | 311° |
| 2026-05-01 13:37 | 43.52090 | 19.18985 | 40240 ft | 469 kts | 311° |
| 2026-05-01 13:38 | 43.56178 | 19.12669 | 41674 ft | 419 kts | 314° |
| 2026-05-01 13:38 | 43.57490 | 19.10715 | 42128 ft | 402 kts | 314° |
| 2026-05-01 13:38 | 43.59931 | 19.07069 | 42968 ft | 377 kts | 314° |
| 2026-05-01 13:39 | 43.61087 | 19.05334 | 43352 ft | 360 kts | 314° |
| 2026-05-01 13:39 | 43.62733 | 19.02861 | 43512 ft | 349 kts | 314° |
| 2026-05-01 13:39 | 43.64411 | 19.00400 | 43091 ft | 358 kts | 316° |
| 2026-05-01 13:39 | 43.66177 | 18.97918 | 42953 ft | 358 kts | 317° |
| 2026-05-01 13:40 | 43.67931 | 18.95560 | 43259 ft | 346 kts | 318° |
| 2026-05-01 13:40 | 43.69677 | 18.93298 | 43017 ft | 351 kts | 316° |
| 2026-05-01 13:40 | 43.71414 | 18.90721 | 41926 ft | 381 kts | 314° |
| 2026-05-01 13:40 | 43.73232 | 18.87867 | 40986 ft | 409 kts | 312° |
| 2026-05-01 13:41 | 43.75137 | 18.84774 | 40133 ft | 434 kts | 313° |
| 2026-05-01 13:41 | 43.77145 | 18.81527 | 39557 ft | 453 kts | 313° |
| 2026-05-01 13:41 | 43.79238 | 18.78153 | 39029 ft | 469 kts | 313° |
| 2026-05-01 13:41 | 43.81379 | 18.74709 | 38376 ft | 474 kts | 313° |